Kumasi, Ghana
Current Conditions -  °F | °C
As of 8:00 AM on Saturday 29 Nov 2014 (Local Time) from DGAA Reporting Station
Scattered Clouds Scattered Clouds  
Wind Chill: 81°   Ceiling: Unl
Heat Index: 87°   Visibility: 5mi
Dew Point: 77°   Wind: 8mph
Humidity: 89%   Direction: 280°W
Pressure: 29.88"   Gusts: NA
Location:  6.69°N, 1.63°W
Report Text: DGAA 290800Z 28007KT 8000 SCT011 27/25 Q1012 NOSIG
Loading
Personal Weather Stations






























Interactive Weather Map New forecast layout! Learn more

10-Day Weather Forecast

Advertisements
Track Severe Weather on mobile